sensor_id;sensor_type;location;lat;lon;timestamp;pressure;altitude;pressure_sealevel;temperature;humidity
7918;BME280;4004;42.624;23.386;2023-04-26T00:02:00;93231.94;;;8.99;100.00
7918;BME280;4004;42.624;23.386;2023-04-26T00:04:30;93234.91;;;8.90;100.00
7918;BME280;4004;42.624;23.386;2023-04-26T00:06:58;93230.78;;;9.00;100.00
7918;BME280;4004;42.624;23.386;2023-04-26T00:09:25;93219.31;;;9.00;100.00
7918;BME280;4004;42.624;23.386;2023-04-26T00:11:52;93223.50;;;8.97;100.00
7918;BME280;4004;42.624;23.386;2023-04-26T00:14:19;93210.03;;;8.93;100.00
7918;BME280;4004;42.624;23.386;2023-04-26T00:16:45;93210.19;;;8.70;100.00
7918;BME280;4004;42.624;23.386;2023-04-26T00:19:12;93203.66;;;8.68;100.00
7918;BME280;4004;42.624;23.386;2023-04-26T00:21:41;93202.09;;;8.67;100.00
7918;BME280;4004;42.624;23.386;2023-04-26T00:24:08;93200.91;;;8.64;100.00
7918;BME280;4004;42.624;23.386;2023-04-26T00:26:35;93207.50;;;8.70;100.00
7918;BME280;4004;42.624;23.386;2023-04-26T00:29:03;93202.09;;;8.67;100.00
7918;BME280;4004;42.624;23.386;2023-04-26T00:31:30;93197.94;;;8.69;100.00
7918;BME280;4004;42.624;23.386;2023-04-26T00:33:57;93199.06;;;8.68;100.00
7918;BME280;4004;42.624;23.386;2023-04-26T00:36:23;93187.50;;;8.64;100.00
7918;BME280;4004;42.624;23.386;2023-04-26T00:38:52;93184.84;;;8.64;100.00
7918;BME280;4004;42.624;23.386;2023-04-26T00:41:18;93179.88;;;8.66;100.00
7918;BME280;4004;42.624;23.386;2023-04-26T00:43:46;93187.50;;;8.64;100.00
7918;BME280;4004;42.624;23.386;2023-04-26T00:46:13;93182.16;;;8.64;100.00
7918;BME280;4004;42.624;23.386;2023-04-26T00:48:39;93184.81;;;8.61;100.00
7918;BME280;4004;42.624;23.386;2023-04-26T00:51:06;93181.44;;;8.67;100.00
7918;BME280;4004;42.624;23.386;2023-04-26T00:53:33;93180.56;;;8.56;100.00
7918;BME280;4004;42.624;23.386;2023-04-26T00:56:02;93182.00;;;8.50;100.00
7918;BME280;4004;42.624;23.386;2023-04-26T00:58:32;93172.75;;;8.44;100.00
7918;BME280;4004;42.624;23.386;2023-04-26T01:00:59;93176.16;;;8.41;100.00
7918;BME280;4004;42.624;23.386;2023-04-26T01:03:27;93185.59;;;8.35;100.00
7918;BME280;4004;42.624;23.386;2023-04-26T01:05:54;93182.56;;;8.36;100.00
7918;BME280;4004;42.624;23.386;2023-04-26T01:08:22;93190.16;;;8.30;100.00
7918;BME280;4004;42.624;23.386;2023-04-26T01:10:49;93186.69;;;8.30;100.00
7918;BME280;4004;42.624;23.386;2023-04-26T01:13:17;93192.38;;;8.25;100.00
7918;BME280;4004;42.624;23.386;2023-04-26T01:15:45;93184.19;;;8.14;100.00
7918;BME280;4004;42.624;23.386;2023-04-26T01:18:13;93187.97;;;8.09;100.00
7918;BME280;4004;42.624;23.386;2023-04-26T01:20:40;93192.44;;;8.02;100.00
7918;BME280;4004;42.624;23.386;2023-04-26T01:23:08;93173.28;;;8.00;100.00
7918;BME280;4004;42.624;23.386;2023-04-26T01:25:35;93176.38;;;8.02;100.00
7918;BME280;4004;42.624;23.386;2023-04-26T01:28:02;93167.91;;;7.96;100.00
7918;BME280;4004;42.624;23.386;2023-04-26T01:30:29;93165.84;;;7.86;100.00
7918;BME280;4004;42.624;23.386;2023-04-26T01:32:56;93167.75;;;7.85;100.00
7918;BME280;4004;42.624;23.386;2023-04-26T01:35:22;93170.78;;;7.84;100.00
7918;BME280;4004;42.624;23.386;2023-04-26T01:37:49;93163.47;;;7.81;100.00
7918;BME280;4004;42.624;23.386;2023-04-26T01:40:17;93180.72;;;7.83;100.00
7918;BME280;4004;42.624;23.386;2023-04-26T01:42:44;93177.63;;;7.81;100.00
7918;BME280;4004;42.624;23.386;2023-04-26T01:45:11;93186.38;;;7.78;100.00
7918;BME280;4004;42.624;23.386;2023-04-26T01:47:38;93186.38;;;7.78;100.00
7918;BME280;4004;42.624;23.386;2023-04-26T01:50:06;93184.41;;;7.75;100.00
7918;BME280;4004;42.624;23.386;2023-04-26T01:52:33;93190.06;;;7.70;100.00
7918;BME280;4004;42.624;23.386;2023-04-26T01:54:59;93190.16;;;7.77;100.00
7918;BME280;4004;42.624;23.386;2023-04-26T01:57:27;93180.28;;;7.81;100.00
7918;BME280;4004;42.624;23.386;2023-04-26T01:59:54;93171.25;;;7.89;100.00
7918;BME280;4004;42.624;23.386;2023-04-26T02:02:21;93177.09;;;7.99;100.00
7918;BME280;4004;42.624;23.386;2023-04-26T02:04:47;93171.09;;;8.09;100.00
7918;BME280;4004;42.624;23.386;2023-04-26T02:07:15;93169.06;;;7.99;100.00
7918;BME280;4004;42.624;23.386;2023-04-26T02:09:41;93169.09;;;8.02;100.00
7918;BME280;4004;42.624;23.386;2023-04-26T02:12:08;93171.75;;;7.99;100.00
7918;BME280;4004;42.624;23.386;2023-04-26T02:14:36;93174.38;;;7.95;100.00
7918;BME280;4004;42.624;23.386;2023-04-26T02:17:03;93165.94;;;7.93;100.00
7918;BME280;4004;42.624;23.386;2023-04-26T02:19:30;93160.41;;;7.82;100.00
7918;BME280;4004;42.624;23.386;2023-04-26T02:21:57;93160.03;;;7.80;100.00
7918;BME280;4004;42.624;23.386;2023-04-26T02:24:24;93160.31;;;7.75;100.00
7918;BME280;4004;42.624;23.386;2023-04-26T02:26:51;93166.81;;;7.74;100.00
7918;BME280;4004;42.624;23.386;2023-04-26T02:29:18;93169.09;;;7.72;100.00
7918;BME280;4004;42.624;23.386;2023-04-26T02:31:47;93171.69;;;7.68;100.00
7918;BME280;4004;42.624;23.386;2023-04-26T02:34:14;93179.72;;;7.68;100.00
7918;BME280;4004;42.624;23.386;2023-04-26T02:36:41;93171.75;;;7.72;100.00
7918;BME280;4004;42.624;23.386;2023-04-26T02:39:07;93170.50;;;7.66;100.00
7918;BME280;4004;42.624;23.386;2023-04-26T02:41:34;93171.75;;;7.72;100.00
7918;BME280;4004;42.624;23.386;2023-04-26T02:44:01;93164.56;;;7.76;100.00
7918;BME280;4004;42.624;23.386;2023-04-26T02:46:27;93155.44;;;7.54;100.00
7918;BME280;4004;42.624;23.386;2023-04-26T02:48:55;93152.19;;;7.41;100.00
7918;BME280;4004;42.624;23.386;2023-04-26T02:51:22;93148.75;;;7.18;100.00
7918;BME280;4004;42.624;23.386;2023-04-26T02:53:49;93144.28;;;7.02;100.00
7918;BME280;4004;42.624;23.386;2023-04-26T02:56:16;93136.56;;;6.97;100.00
7918;BME280;4004;42.624;23.386;2023-04-26T02:58:43;93140.06;;;7.01;100.00
7918;BME280;4004;42.624;23.386;2023-04-26T03:01:10;93141.97;;;7.01;100.00
7918;BME280;4004;42.624;23.386;2023-04-26T03:03:38;93147.59;;;6.96;100.00
7918;BME280;4004;42.624;23.386;2023-04-26T03:06:07;93152.06;;;6.88;100.00
7918;BME280;4004;42.624;23.386;2023-04-26T03:08:34;93149.94;;;6.97;100.00
7918;BME280;4004;42.624;23.386;2023-04-26T03:11:01;93140.00;;;6.98;100.00
7918;BME280;4004;42.624;23.386;2023-04-26T03:13:28;93145.44;;;7.01;100.00
7918;BME280;4004;42.624;23.386;2023-04-26T03:15:54;93136.25;;;7.02;100.00
7918;BME280;4004;42.624;23.386;2023-04-26T03:18:21;93133.19;;;7.00;100.00
7918;BME280;4004;42.624;23.386;2023-04-26T03:20:48;93134.38;;;7.03;100.00
7918;BME280;4004;42.624;23.386;2023-04-26T03:23:16;93139.59;;;7.19;100.00
7918;BME280;4004;42.624;23.386;2023-04-26T03:25:44;93136.69;;;7.28;100.00
7918;BME280;4004;42.624;23.386;2023-04-26T03:28:11;93147.59;;;7.42;100.00
7918;BME280;4004;42.624;23.386;2023-04-26T03:30:37;93154.97;;;7.48;100.00
7918;BME280;4004;42.624;23.386;2023-04-26T03:33:04;93145.50;;;7.55;100.00
7918;BME280;4004;42.624;23.386;2023-04-26T03:35:31;93149.13;;;7.66;100.00
7918;BME280;4004;42.624;23.386;2023-04-26T03:37:58;93156.56;;;7.80;100.00
7918;BME280;4004;42.624;23.386;2023-04-26T03:40:26;93153.59;;;7.85;100.00
7918;BME280;4004;42.624;23.386;2023-04-26T03:42:52;93150.53;;;7.86;100.00
7918;BME280;4004;42.624;23.386;2023-04-26T03:45:19;93153.47;;;8.04;100.00
7918;BME280;4004;42.624;23.386;2023-04-26T03:47:46;93153.06;;;8.33;100.00
7918;BME280;4004;42.624;23.386;2023-04-26T03:50:12;93157.16;;;8.53;100.00
7918;BME280;4004;42.624;23.386;2023-04-26T03:52:39;93154.63;;;9.01;100.00
7918;BME280;4004;42.624;23.386;2023-04-26T03:55:07;93153.72;;;9.31;100.00
7918;BME280;4004;42.624;23.386;2023-04-26T03:57:37;93152.25;;;9.37;100.00
7918;BME280;4004;42.624;23.386;2023-04-26T04:00:05;93148.94;;;9.58;100.00
7918;BME280;4004;42.624;23.386;2023-04-26T04:02:34;93155.91;;;9.63;100.00
7918;BME280;4004;42.624;23.386;2023-04-26T04:05:00;93151.72;;;9.69;100.00
7918;BME280;4004;42.624;23.386;2023-04-26T04:07:27;93160.56;;;9.73;100.00
7918;BME280;4004;42.624;23.386;2023-04-26T04:09:54;93176.00;;;9.83;100.00
7918;BME280;4004;42.624;23.386;2023-04-26T04:12:21;93182.16;;;9.91;100.00
7918;BME280;4004;42.624;23.386;2023-04-26T04:14:50;93169.50;;;9.91;100.00
7918;BME280;4004;42.624;23.386;2023-04-26T04:17:16;93186.44;;;9.99;100.00
7918;BME280;4004;42.624;23.386;2023-04-26T04:19:43;93180.31;;;10.02;100.00
7918;BME280;4004;42.624;23.386;2023-04-26T04:22:10;93182.69;;;10.11;100.00
7918;BME280;4004;42.624;23.386;2023-04-26T04:24:37;93185.69;;;9.99;100.00
7918;BME280;4004;42.624;23.386;2023-04-26T04:27:04;93174.84;;;9.84;100.00
7918;BME280;4004;42.624;23.386;2023-04-26T04:29:30;93179.50;;;9.94;100.00
7918;BME280;4004;42.624;23.386;2023-04-26T04:31:59;93184.94;;;10.02;100.00
7918;BME280;4004;42.624;23.386;2023-04-26T04:34:26;93199.59;;;10.15;100.00
7918;BME280;4004;42.624;23.386;2023-04-26T04:36:53;93194.38;;;10.36;100.00
7918;BME280;4004;42.624;23.386;2023-04-26T04:39:20;93185.63;;;10.54;100.00
7918;BME280;4004;42.624;23.386;2023-04-26T04:41:47;93204.66;;;11.08;100.00
7918;BME280;4004;42.624;23.386;2023-04-26T04:44:14;93202.44;;;11.81;100.00
7918;BME280;4004;42.624;23.386;2023-04-26T04:46:41;93202.44;;;12.10;100.00
7918;BME280;4004;42.624;23.386;2023-04-26T04:49:10;93197.06;;;12.10;100.00
7918;BME280;4004;42.624;23.386;2023-04-26T04:51:38;93202.00;;;12.48;100.00
7918;BME280;4004;42.624;23.386;2023-04-26T04:54:11;93209.97;;;12.83;98.47
7918;BME280;4004;42.624;23.386;2023-04-26T04:56:38;93206.09;;;12.84;97.37
7918;BME280;4004;42.624;23.386;2023-04-26T04:59:05;93205.38;;;12.73;98.80
7918;BME280;4004;42.624;23.386;2023-04-26T05:01:32;93208.03;;;12.84;98.57
7918;BME280;4004;42.624;23.386;2023-04-26T05:04:00;93197.66;;;12.75;98.13
7918;BME280;4004;42.624;23.386;2023-04-26T05:06:28;93210.03;;;12.65;98.24
7918;BME280;4004;42.624;23.386;2023-04-26T05:08:56;93203.84;;;12.69;98.24
7918;BME280;4004;42.624;23.386;2023-04-26T05:11:23;93216.91;;;12.77;97.27
7918;BME280;4004;42.624;23.386;2023-04-26T05:13:50;93212.25;;;12.89;97.18
7918;BME280;4004;42.624;23.386;2023-04-26T05:16:17;93218.38;;;13.03;96.24
7918;BME280;4004;42.624;23.386;2023-04-26T05:18:44;93219.16;;;12.93;95.21
7918;BME280;4004;42.624;23.386;2023-04-26T05:21:10;93223.81;;;12.93;95.37
7918;BME280;4004;42.624;23.386;2023-04-26T05:23:38;93220.00;;;12.83;96.69
7918;BME280;4004;42.624;23.386;2023-04-26T05:26:06;93212.41;;;12.46;99.59
7918;BME280;4004;42.624;23.386;2023-04-26T05:28:33;93216.59;;;12.57;99.18
7918;BME280;4004;42.624;23.386;2023-04-26T05:31:00;93218.16;;;12.55;99.76
7918;BME280;4004;42.624;23.386;2023-04-26T05:33:26;93214.25;;;12.70;100.00
7918;BME280;4004;42.624;23.386;2023-04-26T05:35:53;93216.09;;;12.91;98.76
7918;BME280;4004;42.624;23.386;2023-04-26T05:38:22;93227.16;;;13.22;96.51
7918;BME280;4004;42.624;23.386;2023-04-26T05:40:50;93222.78;;;13.50;95.90
7918;BME280;4004;42.624;23.386;2023-04-26T05:43:17;93232.50;;;13.96;92.67
7918;BME280;4004;42.624;23.386;2023-04-26T05:45:49;93235.97;;;14.41;90.77
7918;BME280;4004;42.624;23.386;2023-04-26T05:48:16;93235.28;;;14.75;89.51
7918;BME280;4004;42.624;23.386;2023-04-26T05:50:43;93232.31;;;14.62;87.75
7918;BME280;4004;42.624;23.386;2023-04-26T05:53:10;93229.66;;;14.59;87.57
7918;BME280;4004;42.624;23.386;2023-04-26T05:55:36;93239.97;;;14.26;88.36
7918;BME280;4004;42.624;23.386;2023-04-26T05:58:05;93232.31;;;14.17;88.73
7918;BME280;4004;42.624;23.386;2023-04-26T06:00:32;93233.97;;;14.04;89.80
7918;BME280;4004;42.624;23.386;2023-04-26T06:02:58;93232.56;;;13.88;92.32
7918;BME280;4004;42.624;23.386;2023-04-26T06:05:25;93232.41;;;14.10;91.71
7918;BME280;4004;42.624;23.386;2023-04-26T06:07:52;93230.84;;;14.54;89.80
7918;BME280;4004;42.624;23.386;2023-04-26T06:10:19;93230.41;;;15.28;87.57
7918;BME280;4004;42.624;23.386;2023-04-26T06:12:46;93242.16;;;16.03;81.44
7918;BME280;4004;42.624;23.386;2023-04-26T06:15:14;93237.44;;;16.54;74.30
7918;BME280;4004;42.624;23.386;2023-04-26T06:17:41;93241.16;;;17.27;69.54
7918;BME280;4004;42.624;23.386;2023-04-26T06:20:08;93236.97;;;17.03;63.18
7918;BME280;4004;42.624;23.386;2023-04-26T06:22:35;93237.63;;;16.90;63.74
7918;BME280;4004;42.624;23.386;2023-04-26T06:25:04;93233.13;;;17.40;63.50
7918;BME280;4004;42.624;23.386;2023-04-26T06:27:31;93238.00;;;17.85;58.34
7918;BME280;4004;42.624;23.386;2023-04-26T06:29:58;93233.53;;;17.95;55.24
7918;BME280;4004;42.624;23.386;2023-04-26T06:32:26;93231.81;;;17.85;54.52
7918;BME280;4004;42.624;23.386;2023-04-26T06:34:53;93231.16;;;18.13;53.81
7918;BME280;4004;42.624;23.386;2023-04-26T06:37:20;93229.81;;;18.21;52.72
7918;BME280;4004;42.624;23.386;2023-04-26T06:39:46;93237.78;;;18.29;52.48
7918;BME280;4004;42.624;23.386;2023-04-26T06:42:13;93235.13;;;18.25;52.06
7918;BME280;4004;42.624;23.386;2023-04-26T06:44:41;93233.22;;;17.73;52.96
7918;BME280;4004;42.624;23.386;2023-04-26T06:47:07;93232.94;;;17.11;54.00
7918;BME280;4004;42.624;23.386;2023-04-26T06:49:37;93231.78;;;15.98;53.17
7918;BME280;4004;42.624;23.386;2023-04-26T06:52:04;93226.66;;;14.87;55.05
7918;BME280;4004;42.624;23.386;2023-04-26T06:54:31;93224.78;;;14.43;56.24
7918;BME280;4004;42.624;23.386;2023-04-26T06:56:58;93222.88;;;13.91;58.23
7918;BME280;4004;42.624;23.386;2023-04-26T06:59:25;93229.16;;;13.77;59.48
7918;BME280;4004;42.624;23.386;2023-04-26T07:01:52;93220.44;;;13.52;61.62
7918;BME280;4004;42.624;23.386;2023-04-26T07:04:19;93220.13;;;13.42;63.55
7918;BME280;4004;42.624;23.386;2023-04-26T07:06:47;93232.03;;;13.52;65.04
7918;BME280;4004;42.624;23.386;2023-04-26T07:09:14;93227.00;;;14.10;64.55
7918;BME280;4004;42.624;23.386;2023-04-26T07:11:41;93229.22;;;14.98;61.88
7918;BME280;4004;42.624;23.386;2023-04-26T07:14:09;93236.13;;;15.64;59.07
7918;BME280;4004;42.624;23.386;2023-04-26T07:16:36;93237.00;;;15.85;56.38
7918;BME280;4004;42.624;23.386;2023-04-26T07:19:03;93229.47;;;15.96;54.41
7918;BME280;4004;42.624;23.386;2023-04-26T07:21:30;93239.72;;;15.85;53.30
7918;BME280;4004;42.624;23.386;2023-04-26T07:23:58;93240.88;;;16.11;52.33
7918;BME280;4004;42.624;23.386;2023-04-26T07:26:25;93242.50;;;16.32;50.40
7918;BME280;4004;42.624;23.386;2023-04-26T07:28:52;93242.97;;;16.94;48.94
7918;BME280;4004;42.624;23.386;2023-04-26T07:31:19;93242.22;;;17.13;48.41
7918;BME280;4004;42.624;23.386;2023-04-26T07:33:46;93242.28;;;17.10;48.47
7918;BME280;4004;42.624;23.386;2023-04-26T07:36:12;93233.84;;;16.61;47.64
7918;BME280;4004;42.624;23.386;2023-04-26T07:38:39;93228.34;;;16.64;46.62
7918;BME280;4004;42.624;23.386;2023-04-26T07:41:08;93238.72;;;16.69;46.30
7918;BME280;4004;42.624;23.386;2023-04-26T07:43:34;93251.88;;;16.94;45.86
7918;BME280;4004;42.624;23.386;2023-04-26T07:46:01;93240.38;;;17.27;44.55
7918;BME280;4004;42.624;23.386;2023-04-26T07:48:28;93235.25;;;17.12;44.26
7918;BME280;4004;42.624;23.386;2023-04-26T07:50:54;93244.97;;;17.50;44.59
7918;BME280;4004;42.624;23.386;2023-04-26T07:53:21;93251.13;;;17.70;43.88
7918;BME280;4004;42.624;23.386;2023-04-26T07:55:49;93259.22;;;17.54;44.31
7918;BME280;4004;42.624;23.386;2023-04-26T07:58:18;93268.56;;;17.73;43.26
7918;BME280;4004;42.624;23.386;2023-04-26T08:00:45;93250.34;;;17.33;44.07
7918;BME280;4004;42.624;23.386;2023-04-26T08:03:13;93259.00;;;17.28;44.95
7918;BME280;4004;42.624;23.386;2023-04-26T08:05:40;93259.19;;;17.17;44.80
7918;BME280;4004;42.624;23.386;2023-04-26T08:08:07;93216.16;;;16.96;44.31
7918;BME280;4004;42.624;23.386;2023-04-26T08:10:34;93261.50;;;16.99;44.80
7918;BME280;4004;42.624;23.386;2023-04-26T08:13:02;93243.25;;;16.80;45.07
7918;BME280;4004;42.624;23.386;2023-04-26T08:15:30;93246.47;;;16.94;44.95
7918;BME280;4004;42.624;23.386;2023-04-26T08:17:57;93250.91;;;16.61;46.00
7918;BME280;4004;42.624;23.386;2023-04-26T08:20:24;93246.53;;;16.20;45.61
7918;BME280;4004;42.624;23.386;2023-04-26T08:22:54;93255.38;;;15.73;46.18
7918;BME280;4004;42.624;23.386;2023-04-26T08:25:21;93246.22;;;15.60;46.50
7918;BME280;4004;42.624;23.386;2023-04-26T08:27:48;93256.09;;;15.47;48.04
7918;BME280;4004;42.624;23.386;2023-04-26T08:30:15;93242.00;;;15.28;48.52
7918;BME280;4004;42.624;23.386;2023-04-26T08:32:43;93245.75;;;15.38;48.58
7918;BME280;4004;42.624;23.386;2023-04-26T08:35:11;93247.47;;;15.25;48.79
7918;BME280;4004;42.624;23.386;2023-04-26T08:37:37;93242.88;;;15.22;48.74
7918;BME280;4004;42.624;23.386;2023-04-26T08:40:05;93247.25;;;15.12;48.60
7918;BME280;4004;42.624;23.386;2023-04-26T08:42:38;93251.75;;;15.22;48.42
7918;BME280;4004;42.624;23.386;2023-04-26T08:45:06;93252.25;;;15.13;49.01
7918;BME280;4004;42.624;23.386;2023-04-26T08:47:39;93257.50;;;14.93;49.33
7918;BME280;4004;42.624;23.386;2023-04-26T08:50:12;93245.59;;;14.87;49.23
7918;BME280;4004;42.624;23.386;2023-04-26T08:52:40;93254.63;;;14.74;50.44
7918;BME280;4004;42.624;23.386;2023-04-26T08:55:08;93254.78;;;14.93;50.43
7918;BME280;4004;42.624;23.386;2023-04-26T08:57:37;93254.06;;;14.89;50.64
7918;BME280;4004;42.624;23.386;2023-04-26T09:00:06;93246.47;;;14.77;50.24
7918;BME280;4004;42.624;23.386;2023-04-26T09:02:34;93255.78;;;15.10;49.81
7918;BME280;4004;42.624;23.386;2023-04-26T09:05:02;93261.34;;;15.30;48.96
7918;BME280;4004;42.624;23.386;2023-04-26T09:07:36;93269.59;;;15.50;48.13
7918;BME280;4004;42.624;23.386;2023-04-26T09:10:05;93260.16;;;15.31;48.73
7918;BME280;4004;42.624;23.386;2023-04-26T09:12:33;93269.91;;;15.25;48.68
7918;BME280;4004;42.624;23.386;2023-04-26T09:15:00;93272.25;;;15.23;48.94
7918;BME280;4004;42.624;23.386;2023-04-26T09:17:27;93275.69;;;15.27;49.21
7918;BME280;4004;42.624;23.386;2023-04-26T09:19:55;93269.50;;;14.92;49.04
7918;BME280;4004;42.624;23.386;2023-04-26T09:22:29;93279.59;;;14.88;49.58
7918;BME280;4004;42.624;23.386;2023-04-26T09:24:59;93268.31;;;14.93;49.19
7918;BME280;4004;42.624;23.386;2023-04-26T09:27:36;93265.50;;;15.04;48.93
7918;BME280;4004;42.624;23.386;2023-04-26T09:30:06;93260.56;;;14.96;48.89
7918;BME280;4004;42.624;23.386;2023-04-26T09:32:44;93272.53;;;14.98;48.92
7918;BME280;4004;42.624;23.386;2023-04-26T09:35:21;93267.28;;;14.84;49.86
7918;BME280;4004;42.624;23.386;2023-04-26T09:37:52;93256.56;;;14.73;50.27
7918;BME280;4004;42.624;23.386;2023-04-26T09:40:21;93264.63;;;15.15;50.15
7918;BME280;4004;42.624;23.386;2023-04-26T09:42:59;93266.34;;;14.98;50.21
7918;BME280;4004;42.624;23.386;2023-04-26T09:45:28;93261.44;;;15.23;49.44
7918;BME280;4004;42.624;23.386;2023-04-26T09:48:11;93268.97;;;15.39;48.40
7918;BME280;4004;42.624;23.386;2023-04-26T09:50:38;93261.88;;;15.49;48.71
7918;BME280;4004;42.624;23.386;2023-04-26T09:53:05;93270.09;;;15.42;47.24
7918;BME280;4004;42.624;23.386;2023-04-26T09:55:33;93258.16;;;15.36;47.44
7918;BME280;4004;42.624;23.386;2023-04-26T09:58:07;93263.41;;;15.19;47.56
7918;BME280;4004;42.624;23.386;2023-04-26T10:00:36;93265.06;;;15.40;47.69
7918;BME280;4004;42.624;23.386;2023-04-26T10:03:04;93274.81;;;15.65;47.33
7918;BME280;4004;42.624;23.386;2023-04-26T10:05:33;93271.81;;;15.90;46.92
7918;BME280;4004;42.624;23.386;2023-04-26T10:08:00;93266.31;;;15.93;46.91
7918;BME280;4004;42.624;23.386;2023-04-26T10:10:29;93262.38;;;15.98;45.95
7918;BME280;4004;42.624;23.386;2023-04-26T10:12:57;93259.06;;;15.87;46.11
7918;BME280;4004;42.624;23.386;2023-04-26T10:15:25;93256.16;;;15.74;47.18
7918;BME280;4004;42.624;23.386;2023-04-26T10:17:52;93260.59;;;15.88;46.77
7918;BME280;4004;42.624;23.386;2023-04-26T10:20:19;93255.03;;;15.99;46.16
7918;BME280;4004;42.624;23.386;2023-04-26T10:22:51;93252.03;;;15.89;45.85
7918;BME280;4004;42.624;23.386;2023-04-26T10:25:19;93249.94;;;15.73;46.92
7918;BME280;4004;42.624;23.386;2023-04-26T10:27:48;93250.75;;;15.74;46.52
7918;BME280;4004;42.624;23.386;2023-04-26T10:30:18;93250.81;;;15.94;45.64
7918;BME280;4004;42.624;23.386;2023-04-26T10:33:15;93246.41;;;16.04;45.53
7918;BME280;4004;42.624;23.386;2023-04-26T10:36:00;93243.97;;;15.86;44.87
7918;BME280;4004;42.624;23.386;2023-04-26T10:38:27;93250.00;;;15.70;45.57
7918;BME280;4004;42.624;23.386;2023-04-26T10:40:54;93239.63;;;15.34;45.81
7918;BME280;4004;42.624;23.386;2023-04-26T10:43:27;93235.81;;;14.97;46.26
7918;BME280;4004;42.624;23.386;2023-04-26T10:45:55;93245.19;;;14.89;46.47
7918;BME280;4004;42.624;23.386;2023-04-26T10:48:28;93245.22;;;14.85;46.78
7918;BME280;4004;42.624;23.386;2023-04-26T10:51:07;93223.25;;;14.38;46.08
7918;BME280;4004;42.624;23.386;2023-04-26T10:53:57;93249.75;;;14.58;46.41
7918;BME280;4004;42.624;23.386;2023-04-26T10:56:49;93243.97;;;14.56;46.45
7918;BME280;4004;42.624;23.386;2023-04-26T10:59:19;93244.72;;;14.56;47.25
7918;BME280;4004;42.624;23.386;2023-04-26T11:01:47;93239.69;;;14.58;46.92
7918;BME280;4004;42.624;23.386;2023-04-26T11:04:14;93239.66;;;14.65;46.30
7918;BME280;4004;42.624;23.386;2023-04-26T11:06:49;93240.50;;;14.55;46.14
7918;BME280;4004;42.624;23.386;2023-04-26T11:09:40;93243.94;;;14.59;46.21
7918;BME280;4004;42.624;23.386;2023-04-26T11:12:14;93243.78;;;14.74;46.31
7918;BME280;4004;42.624;23.386;2023-04-26T11:14:44;93235.72;;;14.70;46.22
7918;BME280;4004;42.624;23.386;2023-04-26T11:17:12;93245.44;;;14.64;45.95
7918;BME280;4004;42.624;23.386;2023-04-26T11:19:40;93236.94;;;14.65;45.64
7918;BME280;4004;42.624;23.386;2023-04-26T11:22:07;93242.53;;;14.85;44.93
7918;BME280;4004;42.624;23.386;2023-04-26T11:24:34;93247.03;;;14.96;45.13
7918;BME280;4004;42.624;23.386;2023-04-26T11:27:07;93240.31;;;14.73;45.10
7918;BME280;4004;42.624;23.386;2023-04-26T11:29:34;93240.25;;;14.80;45.10
7918;BME280;4004;42.624;23.386;2023-04-26T11:32:01;93246.19;;;15.02;45.06
7918;BME280;4004;42.624;23.386;2023-04-26T11:34:32;93240.63;;;15.17;44.07
7918;BME280;4004;42.624;23.386;2023-04-26T11:37:00;93247.91;;;15.20;44.03
7918;BME280;4004;42.624;23.386;2023-04-26T11:39:29;93251.16;;;15.38;43.50
7918;BME280;4004;42.624;23.386;2023-04-26T11:42:03;93247.09;;;15.53;43.43
7918;BME280;4004;42.624;23.386;2023-04-26T11:44:31;93242.03;;;15.55;43.75
7918;BME280;4004;42.624;23.386;2023-04-26T11:46:59;93248.59;;;15.58;43.25
7918;BME280;4004;42.624;23.386;2023-04-26T11:49:28;93248.78;;;15.74;42.67
7918;BME280;4004;42.624;23.386;2023-04-26T11:51:57;93251.50;;;15.74;42.43
7918;BME280;4004;42.624;23.386;2023-04-26T11:54:27;93242.75;;;15.90;42.44
7918;BME280;4004;42.624;23.386;2023-04-26T11:56:56;93241.31;;;15.82;41.77
7918;BME280;4004;42.624;23.386;2023-04-26T11:59:23;93243.78;;;15.69;41.74
7918;BME280;4004;42.624;23.386;2023-04-26T12:01:50;93242.72;;;15.63;41.80
7918;BME280;4004;42.624;23.386;2023-04-26T12:04:17;93234.22;;;15.92;41.74
7918;BME280;4004;42.624;23.386;2023-04-26T12:06:45;93237.25;;;15.94;42.15
7918;BME280;4004;42.624;23.386;2023-04-26T12:09:15;93234.66;;;15.87;41.60
7918;BME280;4004;42.624;23.386;2023-04-26T12:11:47;93236.34;;;15.77;41.76
7918;BME280;4004;42.624;23.386;2023-04-26T12:14:15;93228.44;;;15.90;42.07
7918;BME280;4004;42.624;23.386;2023-04-26T12:16:42;93228.28;;;15.73;41.80
7918;BME280;4004;42.624;23.386;2023-04-26T12:19:08;93224.19;;;15.58;42.01
7918;BME280;4004;42.624;23.386;2023-04-26T12:21:40;93218.84;;;15.54;42.60
7918;BME280;4004;42.624;23.386;2023-04-26T12:24:21;93216.13;;;15.85;42.10
7918;BME280;4004;42.624;23.386;2023-04-26T12:26:48;93224.75;;;15.77;42.70
7918;BME280;4004;42.624;23.386;2023-04-26T12:29:15;93219.25;;;15.53;42.70
7918;BME280;4004;42.624;23.386;2023-04-26T12:31:42;93220.84;;;15.50;42.54
7918;BME280;4004;42.624;23.386;2023-04-26T12:34:09;93222.41;;;15.48;43.16
7918;BME280;4004;42.624;23.386;2023-04-26T12:36:35;93221.88;;;15.29;42.90
7918;BME280;4004;42.624;23.386;2023-04-26T12:39:02;93214.34;;;15.13;43.32
7918;BME280;4004;42.624;23.386;2023-04-26T12:41:31;93211.63;;;15.13;43.42
7918;BME280;4004;42.624;23.386;2023-04-26T12:43:58;93206.72;;;15.05;43.20
7918;BME280;4004;42.624;23.386;2023-04-26T12:46:25;93219.97;;;14.96;43.40
7918;BME280;4004;42.624;23.386;2023-04-26T12:48:52;93219.78;;;14.79;43.25
7918;BME280;4004;42.624;23.386;2023-04-26T12:51:19;93210.19;;;14.71;43.93
7918;BME280;4004;42.624;23.386;2023-04-26T12:53:46;93184.38;;;14.63;43.50
7918;BME280;4004;42.624;23.386;2023-04-26T12:56:13;93209.78;;;15.07;43.06
7918;BME280;4004;42.624;23.386;2023-04-26T12:58:42;93213.59;;;15.13;42.29
7918;BME280;4004;42.624;23.386;2023-04-26T13:01:09;93218.84;;;15.27;43.09
7918;BME280;4004;42.624;23.386;2023-04-26T13:03:38;93221.06;;;15.32;43.80
7918;BME280;4004;42.624;23.386;2023-04-26T13:06:05;93211.59;;;15.17;43.68
7918;BME280;4004;42.624;23.386;2023-04-26T13:08:32;93165.75;;;14.72;43.18
7918;BME280;4004;42.624;23.386;2023-04-26T13:10:59;93206.81;;;14.98;43.32
7918;BME280;4004;42.624;23.386;2023-04-26T13:13:26;93230.72;;;14.68;42.63
7918;BME280;4004;42.624;23.386;2023-04-26T13:15:54;93242.91;;;14.42;43.57